This is the latest recevied weather packets stored in our database for station/object KC0QBU-13. If no packets are shown the sender has not sent any weather packets the latest 10 day(s).
| Time | Temp. | Humidity | Pressure | Rain* | Wind** | Luminosity | Snow |
|---|---|---|---|---|---|---|---|
| 1777965303 | 12.22° C | 68% | 1010.6 hPa | 1.02 mm | - | - | - |
| 1777963203 | 13.89° C | 78% | 1009.5 hPa | 2.29 mm | - | - | - |
| 1777960203 | 16.67° C | 66% | 1007.3 hPa | 0.25 mm | - | - | - |
| 1777959903 | 16.67° C | 62% | 1007.2 hPa | 0 mm | - | - | - |
| 1777957503 | 21.67° C | 45% | 1006.5 hPa | 0 mm | - | - | - |
| 1777953304 | 22.22° C | 66% | 1005.8 hPa | 0 mm | - | - | - |
| 1777952703 | 22.22° C | 65% | 1005.8 hPa | 0 mm | - | - | - |
| 1777952404 | 22.22° C | 65% | 1005.8 hPa | 0 mm | - | - | - |
| 1777950303 | 22.78° C | 62% | 1005.6 hPa | 0 mm | - | - | - |
| 1777949403 | 22.78° C | 60% | 1005.5 hPa | 0 mm | - | - | - |
| 1777947604 | 23.33° C | 56% | 1005 hPa | 0 mm | - | - | - |
| 1777944903 | 23.33° C | 55% | 1004.5 hPa | 0 mm | - | - | - |
| 1777944303 | 23.33° C | 53% | 1004.4 hPa | 0 mm | - | - | - |
| 1777942503 | 25° C | 49% | 1004 hPa | 0 mm | - | - | - |
| 1777941303 | 26.11° C | 46% | 1003.7 hPa | 0 mm | - | - | - |
| 1777934403 | 27.78° C | 43% | 1003.7 hPa | 0 mm | - | - | - |
| 1777933204 | 27.22° C | 43% | 1003.7 hPa | 0 mm | - | - | - |
| 1777932903 | 27.22° C | 43% | 1003.8 hPa | 0 mm | - | - | - |
| 1777931104 | 26.67° C | 43% | 1004.2 hPa | 0 mm | - | - | - |
| 1777928704 | 27.22° C | 42% | 1004.3 hPa | 0 mm | - | - | - |
| 1777924804 | 28.33° C | 40% | 1004.7 hPa | 0 mm | - | - | - |
| 1777924503 | 28.33° C | 39% | 1004.7 hPa | 0 mm | - | - | - |
| 1777923303 | 28.33° C | 41% | 1004.8 hPa | 0 mm | - | - | - |
| 1777922703 | 28.33° C | 41% | 1004.8 hPa | 0 mm | - | - | - |
| 1777921803 | 27.78° C | 39% | 1004.7 hPa | 0 mm | - | - | - |
* Rain latest hour (hover to see other rain measurements)
** Current wind speed in m/s (hover to see current wind gust speed)